• Join FlightAware (Why Join?)
  • Login
  • US Flag 
02:51PM EDT


 

Airport Tracker/Info


-or-


 

Live Flight TrackerFlight Track Log ✈ EGF2748 ✈ 20-Jun-2013 ✈ KPNS - KDFW

Flight Track Log - Related Links

Times and Time Zones

All times are in EDT time to prevent confusion due to time zone crossing. See the EGF2748 flight status page for this flight to view local times or setup timezone preferences in your user account.

Time Position Orientation Groundspeed Altitude Reporting Facility
EDT Latitude Longitude Course Direction KTS MPH feet Rate Location/Type
06:47PM 30.4094 -87.1772 169° South 214 246 1,800  Level Jacksonville Center
06:48PM 30.3411 -87.1644 171° South 255 293 4,000 2,100 Climbing Jacksonville Center
06:49PM 30.5333 -87.4993 270° West  Level FlightAware Approximate
06:49PM 30.2764 -87.1642 180° South 277 319 5,900  Level Jacksonville Center
06:50PM 30.5567 -87.6050 285° West  Level FlightAware Approximate
06:51PM 30.5779 -87.7115 282° West  Level FlightAware Approximate
06:51PM 30.2917 -87.2681 280° West 265 305 8,900  Level Jacksonville Center
06:52PM 30.5973 -87.8184 282° West  Level FlightAware Approximate
06:53PM 30.3653 -87.3903 305° West 271 312 12,100  Level Houston Center
06:54PM 30.4214 -87.4617 312° West 292 336 13,500 1,200 Climbing Houston Center
06:55PM 30.4806 -87.5378 312° West 311 358 14,600 1,200 Climbing Houston Center
06:56PM 30.5561 -87.6344 312° West 333 383 16,000 1,200 Climbing Houston Center
06:57PM 30.6222 -87.7175 313° West 345 397 17,200 1,080 Climbing Houston Center
06:58PM 30.6883 -87.8025 312° West 353 406 18,300 1,020 Climbing Houston Center
06:59PM 30.7567 -87.8872 313° West 359 413 19,400 1,020 Climbing Houston Center
07:00PM 30.8256 -87.9731 313° West 361 415 20,500 1,080 Climbing Houston Center
07:01PM 30.8875 -88.0644 308° West 363 418 21,700 1,140 Climbing Houston Center
07:02PM 30.9478 -88.1894 299° West 366 421 22,900 900 Climbing Houston Center
07:03PM 30.9914 -88.2797 299° West 379 436 23,600 840 Climbing Houston Center
07:04PM 31.0519 -88.3944 302° West 371 427 24,700 960 Climbing Houston Center
07:05PM 31.0961 -88.5019 296° West 368 423 25,600 960 Climbing Houston Center
07:06PM 31.1425 -88.6239 294° West 370 426 26,700 960 Climbing Houston Center
07:07PM 31.1856 -88.7336 295° West 372 428 27,700 900 Climbing Houston Center
07:08PM 31.2283 -88.8439 294° West 372 428 28,600 840 Climbing Houston Center
07:09PM 31.2611 -88.9575 289° West 375 432 29,500 660 Climbing Houston Center
07:10PM 31.2769 -89.1025 277° West 378 435 30,000 720 Climbing Houston Center
07:11PM 31.2922 -89.2308 278° West 397 457 31,000 1,080 Climbing Houston Center
07:12PM 31.3078 -89.3547 278° West 390 449 32,300 1,080 Climbing Houston Center
07:13PM 31.3211 -89.4731 278° West 372 428 33,300 900 Climbing Houston Center
07:14PM 31.3353 -89.6036 277° West 378 435 34,200 900 Climbing Houston Center
07:15PM 31.3500 -89.7253 278° West 382 440 35,200 780 Climbing Houston Center
07:16PM 31.3639 -89.8472 278° West 381 438 35,900 360 Climbing Houston Center
07:17PM 31.3778 -89.9706 278° West 387 445 36,000  Climbing Houston Center
07:18PM 31.3950 -90.1269 277° West 406 467 36,000  Level Houston Center
07:19PM 31.4100 -90.2578 278° West 410 472 36,000  Level Houston Center
07:20PM 31.4242 -90.3889 277° West 411 473 36,000  Level Houston Center
07:21PM 31.4378 -90.5194 277° West 408 470 36,000 300 Level Houston Center
07:22PM 31.4522 -90.6483 278° West 403 464 36,700 480 Climbing Houston Center
07:24PM 31.4658 -90.7747 277° West 396 456 37,000 120 Climbing Houston Center
07:25PM 31.4825 -90.9283 277° West 400 460 37,000  Level Houston Center
07:26PM 31.4961 -91.0567 277° West 400 460 37,000  Level Houston Center
07:27PM 31.5089 -91.1914 276° West 395 455 37,000  Level Houston Center
07:28PM 31.5231 -91.3169 278° West 390 449 37,000  Level Houston Center
07:29PM 31.5344 -91.4411 276° West 384 442 37,000  Level Houston Center
07:30PM 31.5478 -91.5644 277° West 382 440 37,000  Level Houston Center
07:31PM 31.5592 -91.6867 276° West 379 436 37,000  Level Houston Center
07:32PM 31.5728 -91.8319 276° West 375 432 37,000  Level Houston Center
07:33PM 31.5847 -91.9514 277° West 371 427 37,000  Level Houston Center
07:34PM 31.5953 -92.0747 276° West 368 423 37,000  Level Houston Center
07:35PM 31.6072 -92.1936 277° West 368 423 37,000  Level Houston Center
07:36PM 31.6181 -92.3139 276° West 371 427 37,000 -300 Level Houston Center
07:37PM 31.6289 -92.4356 276° West 375 432 36,400 -540 Descending Houston Center
07:38PM 31.6414 -92.5606 277° West 386 444 36,000 -240 Descending Houston Center
07:39PM 31.6533 -92.6872 276° West 391 450 36,000  Level Houston Center
07:40PM 31.6669 -92.8450 276° West 405 466 36,000  Level Houston Center
07:41PM 31.6781 -92.9789 276° West 412 474 36,000  Level Houston Center
07:42PM 31.6911 -93.1131 277° West 416 479 36,000  Level Houston Center
07:43PM 31.7028 -93.2467 276° West 412 474 36,000  Level Houston Center
07:44PM 31.7142 -93.3967 275° West 411 473 36,000 -300 Level Houston Center
07:45PM 31.7256 -93.5269 276° West 407 468 35,500 -840 Descending Houston Center
07:46PM 31.7375 -93.6583 276° West 407 468 34,400 -780 Descending Houston Center
07:47PM 31.7489 -93.7900 276° West 406 467 34,000 -240 Descending Houston Center
07:48PM 31.7683 -93.9169 280° West 401 461 34,000  Level Houston Center
07:49PM 31.8008 -94.0728 284° West 405 466 34,000  Level Houston Center
07:50PM 31.8264 -94.2036 283° West 410 472 34,000  Level Houston Center
07:51PM 31.8511 -94.3344 283° West 416 479 34,000  Level Houston Center
07:52PM 31.8769 -94.4667 283° West 417 480 34,000  Level Houston Center
07:53PM 31.8950 -94.5531 284° West 417 480 34,000  Level Fort Worth Center
07:54PM 31.9189 -94.6892 282° West 422 486 34,000  Level Fort Worth Center
07:55PM 31.9444 -94.8208 283° West 422 486 34,000  Level Fort Worth Center
07:56PM 31.9703 -94.9547 283° West 422 486 34,000  Level Fort Worth Center
07:57PM 31.9936 -95.0839 282° West 422 486 34,000  Level Fort Worth Center
07:58PM 32.0250 -95.2106 286° West 417 480 34,000  Level Fort Worth Center
07:59PM 32.0628 -95.3369 289° West 410 472 34,000  Level Fort Worth Center
08:00PM 32.0978 -95.4514 290° West 415 478 34,000  Level Fort Worth Center
08:01PM 32.1333 -95.5783 288° West 410 472 34,000  Level Fort Worth Center
08:02PM 32.1703 -95.6953 290° West 399 459 34,000 -240 Level Fort Worth Center
08:03PM 32.2033 -95.8200 287° West 399 459 33,600 -1,740 Descending Fort Worth Center
08:04PM 32.2403 -95.9494 289° West 406 467 30,600 -3,360 Descending Fort Worth Center
08:05PM 32.2794 -96.0767 290° West 406 467 26,900 -3,900 Descending Fort Worth Center
08:06PM 32.3183 -96.2211 288° West 417 480 22,900 -3,900 Descending Fort Worth Center
08:07PM 32.3550 -96.3508 289° West 418 481 19,100 -3,300 Descending Fort Worth Center
08:08PM 32.3978 -96.4736 292° West 412 474 16,300 -3,000 Descending Fort Worth Center
08:09PM 32.4736 -96.5589 317° Northwest 384 442 13,100 -2,700 Descending Fort Worth Center
08:10PM 32.5450 -96.6469 314° West 378 435 11,000 -1,080 Descending Fort Worth Center
08:11PM 32.6186 -96.7350 315° West 372 428 11,000  Level Fort Worth Center
08:12PM 32.6942 -96.8208 316° Northwest 372 428 11,000  Level Fort Worth Center
08:13PM 32.7508 -96.8897 314° West 350 403 11,000 -480 Level Fort Worth Center
08:14PM 32.8219 -96.9042 350° North 298 343 10,100 -1,200 Descending Fort Worth Center
08:15PM 32.8950 -96.9039 360° North 259 298 8,600 -1,500 Descending Fort Worth Center
08:16PM 32.9681 -96.9033 360° North 259 298 7,200 -840 Descending Fort Worth Center
08:17PM 33.0369 -96.9053 359° North 252 290 7,000 -600 Descending Fort Worth Center
08:18PM 33.1164 -96.9125 356° North 252 290 6,100 -960 Descending Fort Worth Center
08:19PM 33.1664 -96.9469 330° Northwest 245 282 5,100 -1,200 Descending Fort Worth Center
08:20PM 33.1647 -97.0264 269° West 194 223 3,700 -1,080 Descending Fort Worth Center
08:21PM 33.1125 -97.0289 182° South 123 142 3,000 -720 Descending Fort Worth Center